Time;durP1;ratioP1;P1;durP2;ratioP2;P2;SDS_P1;SDS_P2;PMS_P1;PMS_P2;Temp;Humidity;BMP_temperature;BMP_pressure;BME280_temperature;BME280_humidity;BME280_pressure;Samples;Min_cycle;Max_cycle;Signal;HPM_P1;HPM_P2
2023/04/01 00:00:09;;;;;;;0.93;0.40;;;;;;;9.00;100.00;98615.41;697250;28;769;-62
2023/04/01 00:00:32;;;;;;;1.54;0.50;;;;;;;8.93;100.00;98613.84;693587;28;1606;-59
2023/04/01 00:00:54;;;;;;;2.40;0.60;;;;;;;8.92;100.00;98623.44;694962;28;4438;-57
2023/04/01 00:01:14;;;;;;;1.83;0.60;;;;;;;8.97;100.00;98631.97;695503;28;1030;-60
2023/04/01 00:01:35;;;;;;;1.50;0.50;;;;;;;8.98;100.00;98622.41;694488;28;1539;-62
2023/04/01 00:01:56;;;;;;;1.70;0.50;;;;;;;8.98;100.00;98617.19;694481;28;1086;-62
2023/04/01 00:02:16;;;;;;;1.52;0.40;;;;;;;9.05;100.00;98617.84;696021;28;1259;-62
2023/04/01 00:02:36;;;;;;;2.37;0.57;;;;;;;9.03;100.00;98617.91;697434;28;883;-61
2023/04/01 00:02:57;;;;;;;2.22;0.60;;;;;;;9.07;100.00;98621.25;697639;28;881;-62
2023/04/01 00:03:18;;;;;;;1.17;0.40;;;;;;;9.08;100.00;98613.38;696929;28;1050;-61
2023/04/01 00:03:38;;;;;;;2.67;0.47;;;;;;;9.10;100.00;98623.78;694232;28;4444;-59
2023/04/01 00:04:01;;;;;;;3.60;0.60;;;;;;;9.08;100.00;98622.97;694447;28;1227;-59
2023/04/01 00:04:22;;;;;;;1.65;0.50;;;;;;;8.98;100.00;98611.97;694758;28;871;-60
2023/04/01 00:04:43;;;;;;;1.67;0.53;;;;;;;8.95;100.00;98614.69;692052;28;1658;-62
2023/04/01 00:05:03;;;;;;;2.00;0.63;;;;;;;8.91;100.00;98626.09;692233;28;790;-62
2023/04/01 00:05:25;;;;;;;1.30;0.43;;;;;;;8.96;100.00;98619.84;693159;28;1083;-60
2023/04/01 00:05:45;;;;;;;1.75;0.50;;;;;;;8.94;100.00;98615.56;694728;28;1520;-57
2023/04/01 00:06:06;;;;;;;2.55;0.60;;;;;;;8.93;100.00;98609.53;692535;28;1359;-62
2023/04/01 00:06:27;;;;;;;1.77;0.60;;;;;;;8.96;100.00;98613.78;693064;28;869;-62
2023/04/01 00:06:47;;;;;;;2.60;0.53;;;;;;;8.96;100.00;98617.25;694473;28;4327;-62
2023/04/01 00:07:07;;;;;;;2.30;0.50;;;;;;;8.99;100.00;98617.13;695878;28;1318;-60
2023/04/01 00:07:28;;;;;;;1.47;0.50;;;;;;;8.98;100.00;98611.97;695228;28;900;-60
2023/04/01 00:07:48;;;;;;;1.65;0.45;;;;;;;8.92;100.00;98615.63;692677;28;1594;-59
2023/04/01 00:08:08;;;;;;;2.67;0.53;;;;;;;8.91;100.00;98613.91;694823;28;1284;-61
2023/04/01 00:08:29;;;;;;;2.65;0.50;;;;;;;8.93;100.00;98624.28;693288;28;792;-57
2023/04/01 00:08:50;;;;;;;1.80;0.50;;;;;;;8.92;100.00;98607.81;694359;28;1625;-62
2023/04/01 00:09:10;;;;;;;0.73;0.30;;;;;;;8.94;100.00;98619.03;694040;28;849;-61
2023/04/01 00:09:31;;;;;;;1.30;0.40;;;;;;;8.96;100.00;98619.00;692738;28;1701;-62
2023/04/01 00:09:51;;;;;;;2.03;0.60;;;;;;;9.03;100.00;98618.75;693836;28;4426;-62
2023/04/01 00:10:13;;;;;;;1.50;0.47;;;;;;;9.03;100.00;98612.69;694772;28;1357;-62
2023/04/01 00:10:33;;;;;;;2.03;0.50;;;;;;;9.01;100.00;98614.47;689426;28;1457;-61
2023/04/01 00:10:54;;;;;;;2.00;0.50;;;;;;;8.96;100.00;98621.59;692895;28;865;-61
2023/04/01 00:11:15;;;;;;;2.50;0.60;;;;;;;8.93;100.00;98613.84;692808;28;912;-59
2023/04/01 00:11:35;;;;;;;1.55;0.43;;;;;;;8.99;100.00;98613.69;692178;28;1918;-62
2023/04/01 00:11:56;;;;;;;1.80;0.50;;;;;;;8.96;100.00;98624.22;689759;28;1283;-61
2023/04/01 00:12:16;;;;;;;1.70;0.47;;;;;;;9.01;100.00;98617.97;689729;28;1043;-63
2023/04/01 00:12:37;;;;;;;1.55;0.50;;;;;;;8.98;100.00;98619.78;693817;28;979;-62
2023/04/01 00:12:57;;;;;;;1.98;0.40;;;;;;;9.03;100.00;98618.75;693972;28;4503;-62
2023/04/01 00:13:18;;;;;;;2.27;0.40;;;;;;;9.04;100.00;98614.38;694987;28;841;-66
2023/04/01 00:13:39;;;;;;;0.85;0.40;;;;;;;9.12;100.00;98615.00;693339;28;1543;-63
2023/04/01 00:13:59;;;;;;;1.88;0.45;;;;;;;9.18;100.00;98614.81;694932;28;889;-64
2023/04/01 00:14:20;;;;;;;2.00;0.50;;;;;;;9.11;100.00;98626.34;693820;28;1269;-59
2023/04/01 00:14:40;;;;;;;2.33;0.60;;;;;;;9.13;100.00;98629.72;694279;28;1453;-62
2023/04/01 00:15:01;;;;;;;1.47;0.40;;;;;;;9.07;100.00;98619.50;695355;28;1382;-63
2023/04/01 00:15:21;;;;;;;0.98;0.40;;;;;;;9.07;100.00;98621.25;696057;28;796;-62
2023/04/01 00:15:43;;;;;;;1.02;0.50;;;;;;;9.09;100.00;98625.50;694115;28;4929;-59
2023/04/01 00:16:04;;;;;;;1.38;0.32;;;;;;;9.11;100.00;98613.31;695486;28;998;-61
2023/04/01 00:16:24;;;;;;;1.15;0.40;;;;;;;9.17;100.00;98615.69;693218;28;3484;-63
2023/04/01 00:16:45;;;;;;;1.15;0.50;;;;;;;9.15;100.00;98616.66;693198;28;1490;-62
2023/04/01 00:17:05;;;;;;;1.17;0.50;;;;;;;9.10;100.00;98627.22;696338;28;785;-62
2023/04/01 00:17:26;;;;;;;1.58;0.80;;;;;;;9.04;100.00;98622.19;696906;28;1086;-63
2023/04/01 00:17:47;;;;;;;3.28;0.70;;;;;;;9.05;100.00;98621.31;691432;28;1766;-63
2023/04/01 00:18:08;;;;;;;3.17;0.50;;;;;;;9.06;100.00;98623.00;691953;28;1213;-62
2023/04/01 00:18:28;;;;;;;1.13;0.40;;;;;;;9.00;100.00;98615.41;691357;28;1003;-62
2023/04/01 00:18:50;;;;;;;1.50;0.33;;;;;;;9.10;100.00;98629.00;690841;28;4298;-63
2023/04/01 00:19:10;;;;;;;1.35;0.38;;;;;;;9.08;100.00;98618.59;690499;28;1152;-62
2023/04/01 00:19:32;;;;;;;0.87;0.30;;;;;;;9.14;100.00;98614.97;692233;28;1614;-62
2023/04/01 00:19:55;;;;;;;1.00;0.43;;;;;;;9.11;100.00;98615.91;695837;28;948;-62
2023/04/01 00:20:16;;;;;;;1.63;0.50;;;;;;;9.09;100.00;98615.09;695513;28;892;-63
2023/04/01 00:20:36;;;;;;;2.13;0.60;;;;;;;9.06;100.00;98617.81;694441;28;1718;-62
2023/04/01 00:20:57;;;;;;;2.13;0.50;;;;;;;9.10;100.00;98626.38;695547;28;861;-58
2023/04/01 00:21:18;;;;;;;1.60;0.40;;;;;;;9.12;100.00;98619.34;692815;28;925;-63
2023/04/01 00:21:40;;;;;;;1.05;0.40;;;;;;;9.11;100.00;98621.13;691442;28;4447;-59
2023/04/01 00:22:00;;;;;;;1.52;0.50;;;;;;;9.17;100.00;98617.47;690387;28;1120;-62
2023/04/01 00:22:21;;;;;;;1.27;0.43;;;;;;;9.12;100.00;98616.75;691424;28;1118;-63
2023/04/01 00:22:43;;;;;;;1.50;0.43;;;;;;;9.06;100.00;98614.34;692018;28;1137;-64
2023/04/01 00:23:04;;;;;;;1.20;0.40;;;;;;;9.00;100.00;98612.78;692861;28;1214;-58
2023/04/01 00:23:25;;;;;;;1.48;0.50;;;;;;;9.06;100.00;98604.78;694183;28;841;-61
2023/04/01 00:23:46;;;;;;;1.25;0.50;;;;;;;9.09;100.00;98616.84;691670;28;1584;-62
2023/04/01 00:24:06;;;;;;;1.80;0.50;;;;;;;9.08;100.00;98613.38;692759;28;1067;-62
2023/04/01 00:24:27;;;;;;;1.60;0.40;;;;;;;9.06;100.00;98615.19;692758;28;865;-60
2023/04/01 00:24:47;;;;;;;1.17;0.30;;;;;;;9.07;100.00;98616.03;691352;28;4390;-62
2023/04/01 00:25:08;;;;;;;2.20;0.57;;;;;;;9.16;100.00;98616.59;692235;28;826;-63
2023/04/01 00:25:29;;;;;;;1.05;0.40;;;;;;;9.17;100.00;98615.69;692859;28;1027;-63
2023/04/01 00:25:49;;;;;;;1.95;0.50;;;;;;;9.16;100.00;98616.59;691947;28;1089;-61
2023/04/01 00:26:14;;;;;;;1.40;0.50;;;;;;;9.09;100.00;98617.69;690111;28;1359;-63
2023/04/01 00:26:35;;;;;;;1.80;0.50;;;;;;;9.04;100.00;98614.38;689534;28;1747;-63
2023/04/01 00:26:55;;;;;;;2.00;0.50;;;;;;;8.97;100.00;98620.69;686617;28;873;-61
2023/04/01 00:27:16;;;;;;;2.23;0.43;;;;;;;8.97;100.00;98616.34;688597;28;1031;-62
2023/04/01 00:27:36;;;;;;;2.55;0.50;;;;;;;9.08;100.00;98607.31;687167;28;1580;-63
2023/04/01 00:27:57;;;;;;;1.80;0.50;;;;;;;9.08;100.00;98608.16;685943;28;4293;-63
2023/04/01 00:28:19;;;;;;;1.80;0.47;;;;;;;9.03;100.00;98610.09;687467;28;889;-61
2023/04/01 00:28:40;;;;;;;1.60;0.60;;;;;;;9.11;100.00;98602.00;683305;28;1704;-62
2023/04/01 00:29:01;;;;;;;1.63;0.50;;;;;;;9.14;100.00;98617.56;682103;28;1300;-62
2023/04/01 00:29:23;;;;;;;1.43;0.40;;;;;;;9.03;100.00;98610.09;683954;28;976;-62
2023/04/01 00:29:46;;;;;;;2.47;0.50;;;;;;;9.15;100.00;98609.69;683898;28;1463;-63
2023/04/01 00:30:07;;;;;;;0.82;0.40;;;;;;;9.18;100.00;98614.81;686030;28;826;-63
2023/04/01 00:30:28;;;;;;;0.57;0.40;;;;;;;9.24;100.00;98611.16;683179;28;1035;-63
2023/04/01 00:30:48;;;;;;;1.20;0.30;;;;;;;9.20;100.00;98613.00;685633;28;4294;-62
2023/04/01 00:31:10;;;;;;;1.20;0.40;;;;;;;9.17;100.00;98620.06;688963;28;1291;-63
2023/04/01 00:31:30;;;;;;;1.48;0.43;;;;;;;9.17;100.00;98607.03;691381;28;960;-64
2023/04/01 00:31:51;;;;;;;1.57;0.60;;;;;;;9.10;100.00;98613.34;691058;28;1922;-62
2023/04/01 00:32:12;;;;;;;1.33;0.55;;;;;;;9.14;100.00;98600.16;691400;28;906;-62
2023/04/01 00:32:33;;;;;;;1.50;0.40;;;;;;;9.18;100.00;98603.53;694206;28;1492;-63
2023/04/01 00:32:54;;;;;;;1.70;0.52;;;;;;;9.12;100.00;98607.16;695094;28;1481;-62
2023/04/01 00:33:16;;;;;;;1.40;0.43;;;;;;;9.10;100.00;98606.38;689416;28;1267;-63
2023/04/01 00:33:37;;;;;;;1.65;0.50;;;;;;;9.14;100.00;98600.16;687359;28;1474;-61
2023/04/01 00:33:58;;;;;;;1.42;0.47;;;;;;;9.14;100.00;98610.59;684744;28;4765;-61
2023/04/01 00:34:21;;;;;;;1.80;0.50;;;;;;;9.13;100.00;98608.03;685891;28;1315;-59
2023/04/01 00:34:42;;;;;;;2.10;0.50;;;;;;;9.14;100.00;98607.16;685625;28;1648;-61
2023/04/01 00:35:03;;;;;;;1.30;0.50;;;;;;;9.12;100.00;98615.00;688213;28;858;-62
2023/04/01 00:35:23;;;;;;;2.22;0.55;;;;;;;9.13;100.00;98605.44;688719;28;923;-62
2023/04/01 00:35:44;;;;;;;3.30;0.63;;;;;;;9.13;100.00;98611.47;690015;28;1520;-61
2023/04/01 00:36:16;;;;;;;2.17;0.60;;;;;;;9.17;100.00;98607.03;689880;28;1485;-62
2023/04/01 00:36:37;;;;;;;1.88;0.68;;;;;;;9.12;100.00;98609.78;689806;28;1659;-60
2023/04/01 00:36:57;;;;;;;3.00;0.60;;;;;;;9.12;100.00;98616.75;687959;28;4463;-58
2023/04/01 00:37:18;;;;;;;1.83;0.40;;;;;;;9.20;100.00;98607.78;689572;28;1242;-63
2023/04/01 00:37:41;;;;;;;1.10;0.40;;;;;;;9.23;100.00;98608.59;691085;28;1544;-60
2023/04/01 00:38:02;;;;;;;2.15;0.50;;;;;;;9.17;100.00;98600.06;690333;28;889;-61
2023/04/01 00:38:23;;;;;;;2.25;0.50;;;;;;;9.18;100.00;98607.00;691655;28;984;-60
2023/04/01 00:38:44;;;;;;;3.43;0.50;;;;;;;9.14;100.00;98607.97;691696;28;5250;-60
2023/04/01 00:39:04;;;;;;;2.10;0.50;;;;;;;9.20;100.00;98610.38;693404;28;1199;-61
2023/04/01 00:39:28;;;;;;;2.33;0.50;;;;;;;9.24;100.00;98611.16;693825;28;955;-59
2023/04/01 00:39:48;;;;;;;2.42;0.70;;;;;;;9.30;100.00;98613.53;690890;28;4330;-59
2023/04/01 00:40:42;;;;;;;2.53;0.70;;;;;;;9.25;100.00;98614.59;689672;28;1157;-60
2023/04/01 00:41:02;;;;;;;0.95;0.43;;;;;;;9.17;100.00;98601.81;686593;28;1579;-59
2023/04/01 00:41:22;;;;;;;1.05;0.40;;;;;;;9.15;100.00;98607.09;687686;28;949;-60
2023/04/01 00:41:45;;;;;;;1.77;0.50;;;;;;;9.16;100.00;98606.16;689085;28;1567;-61
2023/04/01 00:42:08;;;;;;;2.33;0.50;;;;;;;9.22;100.00;98606.88;694736;28;1011;-61
2023/04/01 00:42:29;;;;;;;1.80;0.40;;;;;;;9.25;100.00;98596.34;691996;28;1431;-61
2023/04/01 00:42:50;;;;;;;1.38;0.40;;;;;;;9.25;100.00;98612.00;690195;28;4318;-60
2023/04/01 00:43:20;;;;;;;0.80;0.40;;;;;;;9.29;100.00;98605.78;689363;28;1184;-59
2023/04/01 00:43:42;;;;;;;1.42;0.47;;;;;;;9.22;100.00;98610.38;689608;28;1601;-58
2023/04/01 00:44:16;;;;;;;1.30;0.50;;;;;;;9.13;100.00;98611.47;689607;28;1271;-56
2023/04/01 00:44:37;;;;;;;1.80;0.47;;;;;;;9.15;100.00;98607.09;692310;28;1903;-59
2023/04/01 00:44:58;;;;;;;1.40;0.60;;;;;;;9.17;100.00;98607.88;694824;28;1082;-59
2023/04/01 00:45:37;;;;;;;1.03;0.40;;;;;;;9.16;100.00;98606.16;692418;28;1140;-62
2023/04/01 00:45:58;;;;;;;3.05;0.63;;;;;;;9.18;100.00;98608.75;691637;28;4958;-62
2023/04/01 00:46:20;;;;;;;1.07;0.50;;;;;;;9.22;100.00;98612.09;690254;28;1160;-63
2023/04/01 00:46:41;;;;;;;1.40;0.50;;;;;;;9.19;100.00;98606.09;689933;28;1231;-64
2023/04/01 00:47:01;;;;;;;1.57;0.40;;;;;;;9.16;100.00;98607.94;687691;28;1641;-60
2023/04/01 00:47:26;;;;;;;2.05;0.40;;;;;;;9.16;100.00;98602.72;685122;28;1670;-62
2023/04/01 00:47:46;;;;;;;1.02;0.40;;;;;;;9.20;100.00;98606.94;691082;28;1505;-62
2023/04/01 00:48:11;;;;;;;1.85;0.50;;;;;;;9.16;100.00;98608.78;688849;28;1351;-61
2023/04/01 00:48:37;;;;;;;1.75;0.50;;;;;;;9.16;100.00;98611.38;688795;28;1206;-63
2023/04/01 00:48:58;;;;;;;2.03;0.60;;;;;;;9.09;100.00;98606.44;690721;28;4750;-62
2023/04/01 00:49:22;;;;;;;0.82;0.32;;;;;;;9.14;100.00;98613.19;690878;28;762;-64
2023/04/01 00:49:46;;;;;;;1.02;0.30;;;;;;;9.21;100.00;98608.66;692056;28;1517;-62
2023/04/01 00:50:07;;;;;;;1.67;0.50;;;;;;;9.15;100.00;98607.09;695813;28;1058;-62
2023/04/01 00:50:30;;;;;;;2.38;0.50;;;;;;;9.13;100.00;98606.28;695924;28;946;-61
2023/04/01 00:51:04;;;;;;;1.27;0.40;;;;;;;9.09;100.00;98604.66;695461;28;1476;-62
2023/04/01 00:51:29;;;;;;;1.70;0.50;;;;;;;9.06;100.00;98609.13;693170;28;1375;-62
2023/04/01 00:51:53;;;;;;;2.33;0.55;;;;;;;9.07;100.00;98609.09;692738;28;4384;-62
2023/04/01 00:52:22;;;;;;;2.13;0.60;;;;;;;9.07;100.00;98603.00;693556;28;1500;-62
2023/04/01 00:52:42;;;;;;;1.95;0.50;;;;;;;9.19;100.00;98607.81;694791;28;1006;-63
2023/04/01 00:53:05;;;;;;;1.30;0.50;;;;;;;9.17;100.00;98607.03;698133;28;1144;-62
2023/04/01 00:53:26;;;;;;;1.13;0.50;;;;;;;9.12;100.00;98615.00;695157;28;1055;-59
2023/04/01 00:53:49;;;;;;;0.98;0.40;;;;;;;9.13;100.00;98608.88;691160;28;1622;-61
2023/04/01 00:54:12;;;;;;;1.80;0.50;;;;;;;9.12;100.00;98601.94;692819;28;1200;-58
2023/04/01 00:54:34;;;;;;;2.33;0.50;;;;;;;9.14;100.00;98601.94;690423;28;2054;-62
2023/04/01 00:55:00;;;;;;;1.73;0.47;;;;;;;9.20;100.00;98599.94;686522;28;4550;-64
2023/04/01 00:55:23;;;;;;;1.70;0.50;;;;;;;9.18;100.00;98604.38;684572;28;1073;-63
2023/04/01 00:55:51;;;;;;;1.42;0.40;;;;;;;9.19;100.00;98611.31;686709;28;1612;-61
2023/04/01 00:56:16;;;;;;;1.42;0.40;;;;;;;9.16;100.00;98600.13;688582;28;913;-60
2023/04/01 00:56:44;;;;;;;1.10;0.40;;;;;;;9.17;100.00;98602.66;688316;28;1466;-64
2023/04/01 00:57:30;;;;;;;1.60;0.40;;;;;;;9.26;100.00;98600.66;688637;28;1378;-61
2023/04/01 00:57:53;;;;;;;1.55;0.50;;;;;;;9.26;100.00;98600.66;685369;28;4589;-61
2023/04/01 00:58:20;;;;;;;1.27;0.40;;;;;;;9.23;100.00;98596.41;686948;28;1262;-57
2023/04/01 00:58:57;;;;;;;2.15;0.52;;;;;;;9.27;100.00;98602.38;686557;28;1029;-59
2023/04/01 00:59:24;;;;;;;1.55;0.50;;;;;;;9.26;100.00;98592.84;691345;28;896;-60
2023/04/01 00:59:48;;;;;;;1.52;0.50;;;;;;;9.18;100.00;98604.38;688183;28;1489;-60
2023/04/01 01:00:12;;;;;;;1.70;0.50;;;;;;;9.16;100.00;98598.34;689548;28;802;-61
2023/04/01 01:00:34;;;;;;;2.13;0.50;;;;;;;9.16;100.00;98603.56;689738;28;1463;-60
2023/04/01 01:00:56;;;;;;;1.88;0.50;;;;;;;9.18;100.00;98599.16;687074;28;4387;-60
2023/04/01 01:01:17;;;;;;;1.40;0.45;;;;;;;9.17;100.00;98592.25;687519;28;837;-60
2023/04/01 01:01:37;;;;;;;1.10;0.40;;;;;;;9.12;100.00;98604.56;688064;28;1515;-61
2023/04/01 01:02:00;;;;;;;1.20;0.40;;;;;;;9.13;100.00;98605.44;686146;28;1396;-61
2023/04/01 01:02:21;;;;;;;1.30;0.50;;;;;;;9.15;100.00;98609.69;684926;28;1213;-60
2023/04/01 01:02:45;;;;;;;1.95;0.50;;;;;;;9.15;100.00;98601.00;689500;28;1578;-62
2023/04/01 01:03:07;;;;;;;1.95;0.50;;;;;;;9.16;100.00;98598.34;688957;28;1615;-62
2023/04/01 01:03:27;;;;;;;1.85;0.45;;;;;;;9.16;100.00;98600.94;687361;28;801;-61
2023/04/01 01:03:48;;;;;;;1.08;0.40;;;;;;;9.14;100.00;98607.16;685508;28;4673;-61
2023/04/01 01:04:25;;;;;;;1.57;0.50;;;;;;;9.08;100.00;98602.09;689135;28;869;-63
2023/04/01 01:04:46;;;;;;;1.75;0.50;;;;;;;9.01;100.00;98598.84;688620;28;1481;-62
2023/04/01 01:05:06;;;;;;;2.00;0.50;;;;;;;9.02;100.00;98603.16;686291;28;1316;-59
2023/04/01 01:05:45;;;;;;;2.55;0.50;;;;;;;9.01;100.00;98596.22;687420;28;1331;-59
2023/04/01 01:06:21;;;;;;;1.55;0.40;;;;;;;9.16;100.00;98600.94;690495;28;938;-61
2023/04/01 01:07:16;;;;;;;1.73;0.50;;;;;;;9.17;100.00;98596.63;690300;28;4422;-61
2023/04/01 01:07:46;;;;;;;2.10;0.50;;;;;;;9.15;100.00;98594.06;694746;28;844;-63
2023/04/01 01:08:20;;;;;;;1.90;0.50;;;;;;;9.15;100.00;98603.63;693053;28;885;-60
2023/04/01 01:08:48;;;;;;;2.10;0.73;;;;;;;9.13;100.00;98593.25;691811;28;1422;-61
2023/04/01 01:09:40;;;;;;;0.95;0.47;;;;;;;9.17;100.00;98592.25;690366;28;1245;-61
2023/04/01 01:10:04;;;;;;;1.65;0.45;;;;;;;9.22;100.00;98602.53;692431;28;4895;-59
2023/04/01 01:10:33;;;;;;;1.35;0.50;;;;;;;9.28;100.00;98593.66;693415;28;1248;-61
2023/04/01 01:10:54;;;;;;;1.42;0.40;;;;;;;9.22;100.00;98599.06;693544;28;1050;-62
2023/04/01 01:11:22;;;;;;;1.63;0.43;;;;;;;9.23;100.00;98606.00;692093;28;1285;-61
2023/04/01 01:11:50;;;;;;;1.40;0.40;;;;;;;9.14;100.00;98607.16;690812;28;1902;-63
2023/04/01 01:12:20;;;;;;;1.25;0.38;;;;;;;9.14;100.00;98607.16;691524;28;1539;-61
2023/04/01 01:12:50;;;;;;;2.00;0.60;;;;;;;9.19;100.00;98600.88;689624;28;4507;-63
2023/04/01 01:13:31;;;;;;;1.13;0.50;;;;;;;9.20;100.00;98597.34;693696;28;1399;-62
2023/04/01 01:14:29;;;;;;;2.08;0.70;;;;;;;9.12;100.00;98594.13;694284;28;2204;-62
2023/04/01 01:15:07;;;;;;;2.10;0.50;;;;;;;9.12;100.00;98599.34;693863;28;1539;-64
2023/04/01 01:15:34;;;;;;;1.40;0.40;;;;;;;9.15;100.00;98601.88;696450;28;1075;-60
2023/04/01 01:16:25;;;;;;;0.60;0.40;;;;;;;9.12;100.00;98588.06;694676;28;4278;-63
2023/04/01 01:16:56;;;;;;;1.88;0.40;;;;;;;9.09;100.00;98599.44;691597;28;1558;-62
2023/04/01 01:17:32;;;;;;;2.03;0.57;;;;;;;9.10;100.00;98595.13;693220;28;973;-61
2023/04/01 01:17:55;;;;;;;2.10;0.47;;;;;;;9.13;100.00;98601.06;694660;28;1523;-60
2023/04/01 01:18:33;;;;;;;1.40;0.45;;;;;;;9.12;100.00;98596.75;694422;28;999;-62
2023/04/01 01:19:16;;;;;;;1.23;0.40;;;;;;;9.18;100.00;98587.91;691616;28;4301;-62
2023/04/01 01:20:06;;;;;;;1.48;0.60;;;;;;;9.12;100.00;98588.91;692076;28;1531;-61
2023/04/01 01:21:04;;;;;;;1.20;0.50;;;;;;;9.15;100.00;98591.44;690352;28;940;-61
2023/04/01 01:21:34;;;;;;;1.73;0.60;;;;;;;9.06;100.00;98601.31;695675;28;920;-61
2023/04/01 01:22:06;;;;;;;1.00;0.38;;;;;;;9.12;100.00;98594.13;695366;28;4476;-62
2023/04/01 01:22:51;;;;;;;2.15;0.60;;;;;;;9.10;100.00;98592.50;694661;28;1313;-62
2023/04/01 01:23:39;;;;;;;1.17;0.40;;;;;;;9.10;100.00;98593.34;694893;28;1305;-61
2023/04/01 01:24:19;;;;;;;1.20;0.40;;;;;;;9.11;100.00;98589.84;691718;28;916;-63
2023/04/01 01:24:55;;;;;;;1.40;0.40;;;;;;;9.01;100.00;98588.41;691160;28;4536;-62
2023/04/01 01:25:18;;;;;;;2.15;0.52;;;;;;;9.03;100.00;98579.66;692496;28;1090;-62
2023/04/01 01:25:56;;;;;;;1.50;0.50;;;;;;;9.05;100.00;98587.41;692497;28;1626;-62
2023/04/01 01:26:35;;;;;;;1.08;0.40;;;;;;;9.06;100.00;98588.28;689705;28;844;-64
2023/04/01 01:27:12;;;;;;;2.42;0.60;;;;;;;8.97;100.00;98590.28;689871;28;1106;-60
2023/04/01 01:27:37;;;;;;;1.70;0.50;;;;;;;8.99;100.00;98587.63;688569;28;1292;-63
2023/04/01 01:28:13;;;;;;;2.55;0.40;;;;;;;8.96;100.00;98590.34;692012;28;4988;-61
2023/04/01 01:29:01;;;;;;;1.70;0.50;;;;;;;9.03;100.00;98589.22;691964;28;1299;-60
2023/04/01 01:30:09;;;;;;;1.55;0.43;;;;;;;9.04;100.00;98590.91;693043;28;1045;-57
2023/04/01 01:30:40;;;;;;;2.33;0.45;;;;;;;9.01;100.00;98588.41;687318;28;1230;-61
2023/04/01 01:31:16;;;;;;;0.85;0.50;;;;;;;9.00;100.00;98579.75;686408;28;4905;-61
2023/04/01 01:31:50;;;;;;;0.73;0.30;;;;;;;9.07;100.00;98587.38;688585;28;1692;-62
2023/04/01 01:32:19;;;;;;;1.85;0.40;;;;;;;9.06;100.00;98586.53;688941;28;1055;-63
2023/04/01 01:33:01;;;;;;;2.75;0.60;;;;;;;9.05;100.00;98595.25;688340;28;1691;-63
2023/04/01 01:33:30;;;;;;;1.35;0.50;;;;;;;9.03;100.00;98586.63;687087;28;1614;-62
2023/04/01 01:34:10;;;;;;;1.67;0.50;;;;;;;9.09;100.00;98582.97;683672;28;4578;-63
2023/04/01 01:35:08;;;;;;;1.75;0.50;;;;;;;9.08;100.00;98582.09;687659;28;1294;-62
2023/04/01 01:35:51;;;;;;;1.13;0.40;;;;;;;9.04;100.00;98585.69;685574;28;1818;-62
2023/04/01 01:36:16;;;;;;;0.80;0.40;;;;;;;9.06;100.00;98586.53;683969;28;1451;-62
2023/04/01 01:36:39;;;;;;;1.00;0.40;;;;;;;9.01;100.00;98585.81;689627;28;1176;-63
2023/04/01 01:37:09;;;;;;;0.85;0.40;;;;;;;9.01;100.00;98586.69;694286;28;6658;-62
2023/04/01 01:37:32;;;;;;;1.50;0.40;;;;;;;8.99;100.00;98585.03;686873;28;927;-63
2023/04/01 01:37:58;;;;;;;1.75;0.40;;;;;;;9.02;100.00;98588.38;683920;28;1641;-63
2023/04/01 01:38:24;;;;;;;1.30;0.40;;;;;;;9.05;100.00;98587.41;690697;28;1358;-61
2023/04/01 01:38:55;;;;;;;1.50;0.50;;;;;;;9.10;100.00;98576.88;688658;28;5237;-62
2023/04/01 01:39:17;;;;;;;1.50;0.50;;;;;;;9.04;100.00;98588.31;688801;28;1276;-63
2023/04/01 01:39:40;;;;;;;2.40;0.60;;;;;;;9.01;100.00;98580.59;690750;28;4319;-63
2023/04/01 01:40:06;;;;;;;1.70;0.50;;;;;;;9.05;100.00;98582.19;691664;28;1333;-62
2023/04/01 01:40:31;;;;;;;1.00;0.30;;;;;;;9.11;100.00;98587.25;687855;28;1595;-63
2023/04/01 01:40:56;;;;;;;1.33;0.60;;;;;;;9.05;100.00;98582.19;691113;28;1086;-63
2023/04/01 01:41:18;;;;;;;1.95;0.30;;;;;;;9.02;100.00;98587.53;692020;28;1455;-61
2023/04/01 01:41:42;;;;;;;2.05;0.40;;;;;;;9.05;100.00;98587.41;687823;28;1504;-62
2023/04/01 01:42:07;;;;;;;2.00;0.52;;;;;;;9.04;100.00;98585.69;689567;28;1439;-62
2023/04/01 01:42:31;;;;;;;1.30;0.50;;;;;;;9.05;100.00;98584.81;690537;28;1361;-62
2023/04/01 01:42:55;;;;;;;1.17;0.50;;;;;;;9.05;100.00;98582.19;689989;28;5028;-63
2023/04/01 01:43:20;;;;;;;1.83;0.40;;;;;;;9.00;100.00;98582.34;695477;28;1453;-62
2023/04/01 01:43:44;;;;;;;0.88;0.40;;;;;;;8.95;100.00;98586.00;692518;28;1476;-63
2023/04/01 01:44:09;;;;;;;1.60;0.40;;;;;;;8.98;100.00;98586.75;690866;28;1319;-62
2023/04/01 01:44:32;;;;;;;0.98;0.40;;;;;;;9.06;100.00;98589.13;692913;28;967;-63
2023/04/01 01:44:55;;;;;;;1.58;0.40;;;;;;;9.02;100.00;98582.31;691902;28;1650;-63
2023/04/01 01:45:20;;;;;;;2.00;0.40;;;;;;;9.02;100.00;98592.72;687340;28;916;-63
2023/04/01 01:45:45;;;;;;;1.25;0.40;;;;;;;9.10;100.00;98588.13;688875;28;4350;-63
2023/04/01 01:46:11;;;;;;;1.20;0.40;;;;;;;9.00;100.00;98584.13;691125;28;865;-61
2023/04/01 01:46:32;;;;;;;2.65;0.60;;;;;;;8.94;100.00;98579.94;690922;28;1329;-64
2023/04/01 01:46:53;;;;;;;2.05;0.60;;;;;;;8.93;100.00;98588.69;689618;28;1513;-62
2023/04/01 01:47:15;;;;;;;1.27;0.50;;;;;;;8.94;100.00;98589.50;690199;28;1231;-62
2023/04/01 01:47:39;;;;;;;1.05;0.40;;;;;;;8.98;100.00;98583.31;687596;28;1558;-63
2023/04/01 01:48:03;;;;;;;1.52;0.50;;;;;;;8.98;100.00;98583.31;687400;28;1495;-62
2023/04/01 01:48:26;;;;;;;1.20;0.40;;;;;;;9.01;100.00;98585.81;686423;28;2165;-63
2023/04/01 01:48:48;;;;;;;1.30;0.40;;;;;;;9.04;100.00;98585.69;687414;28;4394;-63
2023/04/01 01:49:12;;;;;;;1.35;0.35;;;;;;;9.06;100.00;98581.31;687015;28;1220;-63
2023/04/01 01:49:35;;;;;;;1.50;0.40;;;;;;;9.08;100.00;98582.09;687657;28;1227;-63
2023/04/01 01:49:56;;;;;;;1.00;0.40;;;;;;;9.04;100.00;98583.09;684745;28;1217;-62
2023/04/01 01:50:17;;;;;;;0.57;0.40;;;;;;;9.04;100.00;98583.09;682692;28;1375;-63
2023/04/01 01:50:40;;;;;;;1.17;0.40;;;;;;;9.05;100.00;98582.19;681552;28;1729;-63
2023/04/01 01:51:03;;;;;;;1.70;0.50;;;;;;;9.02;100.00;98585.75;687174;28;1438;-62
2023/04/01 01:51:26;;;;;;;1.40;0.40;;;;;;;8.98;100.00;98575.50;687642;28;1323;-62
2023/04/01 01:51:47;;;;;;;0.82;0.30;;;;;;;8.97;100.00;98590.28;687410;28;4311;-62
2023/04/01 01:52:08;;;;;;;2.08;0.40;;;;;;;8.93;100.00;98582.59;689776;28;1295;-62
2023/04/01 01:52:29;;;;;;;1.70;0.50;;;;;;;9.03;100.00;98584.03;686612;28;1236;-63
2023/04/01 01:52:50;;;;;;;1.30;0.40;;;;;;;9.01;100.00;98580.59;686504;28;1524;-63
2023/04/01 01:53:12;;;;;;;1.30;0.40;;;;;;;8.99;100.00;98578.03;687274;28;1194;-63
2023/04/01 01:53:33;;;;;;;1.05;0.35;;;;;;;9.08;100.00;98574.28;689401;28;1248;-61
2023/04/01 01:53:54;;;;;;;0.80;0.30;;;;;;;9.12;100.00;98582.88;692205;28;1651;-63
2023/04/01 01:54:18;;;;;;;0.85;0.30;;;;;;;9.09;100.00;98582.97;692125;28;1244;-63
2023/04/01 01:54:50;;;;;;;1.23;0.40;;;;;;;9.07;100.00;98588.25;688888;28;4425;-63
2023/04/01 01:55:28;;;;;;;2.20;0.47;;;;;;;9.07;100.00;98584.75;688943;28;1687;-64
2023/04/01 01:55:48;;;;;;;0.95;0.40;;;;;;;9.01;100.00;98586.69;688438;28;1453;-62
2023/04/01 01:56:13;;;;;;;1.90;0.40;;;;;;;8.99;100.00;98582.41;688495;28;1307;-62
2023/04/01 01:56:35;;;;;;;0.80;0.45;;;;;;;8.98;100.00;98585.91;691483;28;1445;-63
2023/04/01 01:57:04;;;;;;;1.10;0.60;;;;;;;9.00;100.00;98590.19;690581;28;1508;-61
2023/04/01 01:57:37;;;;;;;1.05;0.38;;;;;;;8.95;100.00;98584.25;695141;28;1271;-63
2023/04/01 01:58:24;;;;;;;0.80;0.30;;;;;;;8.92;100.00;98586.13;691853;28;5032;-63
2023/04/01 01:58:52;;;;;;;1.75;0.47;;;;;;;8.95;100.00;98581.66;690000;28;877;-63
2023/04/01 01:59:17;;;;;;;1.42;0.52;;;;;;;8.98;100.00;98585.91;692858;28;1522;-64
2023/04/01 01:59:40;;;;;;;1.30;0.40;;;;;;;8.95;100.00;98586.00;692682;28;1560;-63
2023/04/01 02:00:14;;;;;;;1.38;0.50;;;;;;;8.91;100.00;98585.25;694152;28;1560;-63
2023/04/01 02:00:37;;;;;;;1.73;0.63;;;;;;;8.90;100.00;98587.91;693708;28;1522;-64
2023/04/01 02:01:04;;;;;;;1.50;0.52;;;;;;;8.89;100.00;98586.19;688868;28;4780;-62
2023/04/01 02:01:29;;;;;;;2.13;0.60;;;;;;;8.81;100.00;98587.28;690276;28;1468;-63
2023/04/01 02:01:56;;;;;;;1.05;0.40;;;;;;;8.79;100.00;98586.50;685122;28;2243;-62
2023/04/01 02:02:17;;;;;;;1.42;0.50;;;;;;;8.77;100.00;98585.69;686336;28;921;-63
2023/04/01 02:02:42;;;;;;;1.73;0.50;;;;;;;8.83;100.00;98576.81;689666;28;1435;-64
2023/04/01 02:03:04;;;;;;;1.02;0.40;;;;;;;8.81;100.00;98583.84;689089;28;1395;-62